sensor_id;sensor_type;location;lat;lon;timestamp;P1;durP1;ratioP1;P2;durP2;ratioP2
52786;SDS011;38661;53.152;5.846;2022-08-01T00:00:41;4.68;;;4.25;;
52786;SDS011;38661;53.152;5.846;2022-08-01T00:03:07;4.32;;;3.78;;
52786;SDS011;38661;53.152;5.846;2022-08-01T00:05:33;5.82;;;3.38;;
52786;SDS011;38661;53.152;5.846;2022-08-01T00:07:58;4.55;;;3.30;;
52786;SDS011;38661;53.152;5.846;2022-08-01T00:10:24;6.10;;;3.22;;
52786;SDS011;38661;53.152;5.846;2022-08-01T00:12:50;5.05;;;3.50;;
52786;SDS011;38661;53.152;5.846;2022-08-01T00:15:16;4.25;;;3.65;;
52786;SDS011;38661;53.152;5.846;2022-08-01T00:17:43;4.60;;;3.28;;
52786;SDS011;38661;53.152;5.846;2022-08-01T00:20:10;4.97;;;3.88;;
52786;SDS011;38661;53.152;5.846;2022-08-01T00:22:37;4.82;;;4.32;;
52786;SDS011;38661;53.152;5.846;2022-08-01T00:25:03;5.35;;;3.78;;
52786;SDS011;38661;53.152;5.846;2022-08-01T00:27:30;5.85;;;3.78;;
52786;SDS011;38661;53.152;5.846;2022-08-01T00:29:56;5.55;;;3.70;;
52786;SDS011;38661;53.152;5.846;2022-08-01T00:32:22;6.25;;;4.25;;
52786;SDS011;38661;53.152;5.846;2022-08-01T00:34:48;10.60;;;5.00;;
52786;SDS011;38661;53.152;5.846;2022-08-01T00:37:14;6.07;;;4.15;;
52786;SDS011;38661;53.152;5.846;2022-08-01T00:39:39;8.45;;;5.05;;
52786;SDS011;38661;53.152;5.846;2022-08-01T00:42:06;5.20;;;4.40;;
52786;SDS011;38661;53.152;5.846;2022-08-01T00:44:33;6.72;;;4.88;;
52786;SDS011;38661;53.152;5.846;2022-08-01T00:46:59;6.60;;;4.45;;
52786;SDS011;38661;53.152;5.846;2022-08-01T00:49:25;6.00;;;4.55;;
52786;SDS011;38661;53.152;5.846;2022-08-01T00:51:50;8.07;;;4.03;;
52786;SDS011;38661;53.152;5.846;2022-08-01T00:54:16;6.78;;;4.20;;
52786;SDS011;38661;53.152;5.846;2022-08-01T00:56:42;8.02;;;3.50;;
52786;SDS011;38661;53.152;5.846;2022-08-01T00:59:08;7.70;;;3.92;;
52786;SDS011;38661;53.152;5.846;2022-08-01T01:01:36;8.30;;;4.03;;
52786;SDS011;38661;53.152;5.846;2022-08-01T01:04:01;7.30;;;3.40;;
52786;SDS011;38661;53.152;5.846;2022-08-01T01:09:44;8.20;;;3.88;;
52786;SDS011;38661;53.152;5.846;2022-08-01T01:12:20;5.25;;;2.47;;
52786;SDS011;38661;53.152;5.846;2022-08-01T01:15:01;5.80;;;3.00;;
52786;SDS011;38661;53.152;5.846;2022-08-01T01:17:41;5.07;;;2.80;;
52786;SDS011;38661;53.152;5.846;2022-08-01T01:20:21;5.85;;;2.80;;
52786;SDS011;38661;53.152;5.846;2022-08-01T01:28:17;9.40;;;3.75;;
52786;SDS011;38661;53.152;5.846;2022-08-01T01:31:06;4.18;;;2.47;;
52786;SDS011;38661;53.152;5.846;2022-08-01T01:33:36;5.43;;;2.70;;
52786;SDS011;38661;53.152;5.846;2022-08-01T01:36:05;8.45;;;3.00;;
52786;SDS011;38661;53.152;5.846;2022-08-01T01:38:41;6.47;;;2.88;;
52786;SDS011;38661;53.152;5.846;2022-08-01T01:41:10;9.82;;;4.43;;
52786;SDS011;38661;53.152;5.846;2022-08-01T01:43:37;7.75;;;3.45;;
52786;SDS011;38661;53.152;5.846;2022-08-01T01:46:05;10.30;;;2.90;;
52786;SDS011;38661;53.152;5.846;2022-08-01T01:48:33;7.47;;;2.60;;
52786;SDS011;38661;53.152;5.846;2022-08-01T01:51:00;7.88;;;2.88;;
52786;SDS011;38661;53.152;5.846;2022-08-01T01:53:27;10.35;;;2.88;;
52786;SDS011;38661;53.152;5.846;2022-08-01T01:55:55;8.32;;;2.90;;
52786;SDS011;38661;53.152;5.846;2022-08-01T01:58:23;11.75;;;3.45;;
52786;SDS011;38661;53.152;5.846;2022-08-01T02:00:51;10.50;;;3.50;;
52786;SDS011;38661;53.152;5.846;2022-08-01T02:03:18;14.25;;;3.97;;
52786;SDS011;38661;53.152;5.846;2022-08-01T02:05:46;11.85;;;3.30;;
52786;SDS011;38661;53.152;5.846;2022-08-01T02:08:14;9.90;;;3.25;;
52786;SDS011;38661;53.152;5.846;2022-08-01T02:10:41;11.57;;;3.63;;
52786;SDS011;38661;53.152;5.846;2022-08-01T02:13:33;12.55;;;3.70;;
52786;SDS011;38661;53.152;5.846;2022-08-01T02:16:01;10.93;;;3.63;;
52786;SDS011;38661;53.152;5.846;2022-08-01T02:18:29;9.93;;;3.00;;
52786;SDS011;38661;53.152;5.846;2022-08-01T02:20:55;10.00;;;3.78;;
52786;SDS011;38661;53.152;5.846;2022-08-01T02:23:22;10.80;;;3.65;;
52786;SDS011;38661;53.152;5.846;2022-08-01T02:25:53;12.32;;;4.03;;
52786;SDS011;38661;53.152;5.846;2022-08-01T02:28:29;10.63;;;4.10;;
52786;SDS011;38661;53.152;5.846;2022-08-01T02:31:03;15.30;;;3.83;;
52786;SDS011;38661;53.152;5.846;2022-08-01T02:33:36;8.07;;;3.55;;
52786;SDS011;38661;53.152;5.846;2022-08-01T02:36:04;10.98;;;4.20;;
52786;SDS011;38661;53.152;5.846;2022-08-01T02:38:32;7.97;;;3.33;;
52786;SDS011;38661;53.152;5.846;2022-08-01T02:41:04;11.00;;;3.20;;
52786;SDS011;38661;53.152;5.846;2022-08-01T02:43:34;13.93;;;3.58;;
52786;SDS011;38661;53.152;5.846;2022-08-01T02:46:03;10.40;;;3.60;;
52786;SDS011;38661;53.152;5.846;2022-08-01T02:48:31;11.55;;;3.65;;
52786;SDS011;38661;53.152;5.846;2022-08-01T02:51:00;10.85;;;3.67;;
52786;SDS011;38661;53.152;5.846;2022-08-01T02:53:27;9.93;;;3.45;;
52786;SDS011;38661;53.152;5.846;2022-08-01T02:55:57;10.95;;;3.50;;
52786;SDS011;38661;53.152;5.846;2022-08-01T02:58:24;9.00;;;2.97;;
52786;SDS011;38661;53.152;5.846;2022-08-01T03:00:51;13.15;;;3.28;;
52786;SDS011;38661;53.152;5.846;2022-08-01T03:03:17;8.98;;;3.58;;
52786;SDS011;38661;53.152;5.846;2022-08-01T03:05:44;7.63;;;3.08;;
52786;SDS011;38661;53.152;5.846;2022-08-01T03:08:11;9.27;;;3.85;;
52786;SDS011;38661;53.152;5.846;2022-08-01T03:10:39;12.45;;;4.03;;
52786;SDS011;38661;53.152;5.846;2022-08-01T03:13:09;8.23;;;3.35;;
52786;SDS011;38661;53.152;5.846;2022-08-01T03:15:36;13.27;;;3.67;;
52786;SDS011;38661;53.152;5.846;2022-08-01T03:18:05;11.70;;;3.55;;
52786;SDS011;38661;53.152;5.846;2022-08-01T03:20:33;6.85;;;3.28;;
52786;SDS011;38661;53.152;5.846;2022-08-01T03:23:04;12.23;;;4.55;;
52786;SDS011;38661;53.152;5.846;2022-08-01T03:25:32;11.48;;;3.47;;
52786;SDS011;38661;53.152;5.846;2022-08-01T03:28:02;10.52;;;4.15;;
52786;SDS011;38661;53.152;5.846;2022-08-01T03:30:29;11.43;;;3.40;;
52786;SDS011;38661;53.152;5.846;2022-08-01T03:32:56;13.07;;;3.63;;
52786;SDS011;38661;53.152;5.846;2022-08-01T03:35:23;15.95;;;4.10;;
52786;SDS011;38661;53.152;5.846;2022-08-01T03:37:54;15.48;;;4.28;;
52786;SDS011;38661;53.152;5.846;2022-08-01T03:40:24;12.32;;;3.80;;
52786;SDS011;38661;53.152;5.846;2022-08-01T03:42:59;13.52;;;3.85;;
52786;SDS011;38661;53.152;5.846;2022-08-01T03:45:31;16.40;;;4.22;;
52786;SDS011;38661;53.152;5.846;2022-08-01T03:48:05;12.38;;;3.78;;
52786;SDS011;38661;53.152;5.846;2022-08-01T03:50:39;14.93;;;3.70;;
52786;SDS011;38661;53.152;5.846;2022-08-01T03:53:08;11.70;;;3.22;;
52786;SDS011;38661;53.152;5.846;2022-08-01T03:55:35;10.20;;;2.67;;
52786;SDS011;38661;53.152;5.846;2022-08-01T03:58:03;11.63;;;3.17;;
52786;SDS011;38661;53.152;5.846;2022-08-01T04:00:29;9.95;;;3.15;;
52786;SDS011;38661;53.152;5.846;2022-08-01T04:02:55;14.02;;;3.33;;
52786;SDS011;38661;53.152;5.846;2022-08-01T04:05:21;19.05;;;4.00;;
52786;SDS011;38661;53.152;5.846;2022-08-01T04:07:48;16.92;;;4.28;;
52786;SDS011;38661;53.152;5.846;2022-08-01T04:10:24;14.60;;;3.22;;
52786;SDS011;38661;53.152;5.846;2022-08-01T04:12:50;13.85;;;3.53;;
52786;SDS011;38661;53.152;5.846;2022-08-01T04:15:16;12.00;;;3.17;;
52786;SDS011;38661;53.152;5.846;2022-08-01T04:17:43;14.32;;;4.30;;
52786;SDS011;38661;53.152;5.846;2022-08-01T04:20:09;11.52;;;3.60;;
52786;SDS011;38661;53.152;5.846;2022-08-01T04:22:36;7.50;;;2.67;;
52786;SDS011;38661;53.152;5.846;2022-08-01T04:25:03;12.23;;;3.25;;
52786;SDS011;38661;53.152;5.846;2022-08-01T04:27:35;11.15;;;3.25;;
52786;SDS011;38661;53.152;5.846;2022-08-01T04:30:04;21.95;;;3.78;;
52786;SDS011;38661;53.152;5.846;2022-08-01T04:32:33;14.60;;;4.28;;
52786;SDS011;38661;53.152;5.846;2022-08-01T04:35:02;17.20;;;3.92;;
52786;SDS011;38661;53.152;5.846;2022-08-01T04:37:31;16.23;;;4.05;;
52786;SDS011;38661;53.152;5.846;2022-08-01T04:39:58;10.70;;;3.15;;
52786;SDS011;38661;53.152;5.846;2022-08-01T04:42:25;12.68;;;3.17;;
52786;SDS011;38661;53.152;5.846;2022-08-01T04:44:52;11.38;;;2.53;;
52786;SDS011;38661;53.152;5.846;2022-08-01T04:47:18;11.32;;;3.28;;
52786;SDS011;38661;53.152;5.846;2022-08-01T04:49:45;13.85;;;3.92;;
52786;SDS011;38661;53.152;5.846;2022-08-01T04:52:11;10.10;;;3.03;;
52786;SDS011;38661;53.152;5.846;2022-08-01T04:54:37;11.68;;;3.47;;
52786;SDS011;38661;53.152;5.846;2022-08-01T04:57:06;10.88;;;3.10;;
52786;SDS011;38661;53.152;5.846;2022-08-01T04:59:32;17.35;;;3.35;;
52786;SDS011;38661;53.152;5.846;2022-08-01T05:02:09;18.52;;;3.88;;
52786;SDS011;38661;53.152;5.846;2022-08-01T05:04:36;17.05;;;4.30;;
52786;SDS011;38661;53.152;5.846;2022-08-01T05:07:03;19.70;;;3.50;;
52786;SDS011;38661;53.152;5.846;2022-08-01T05:09:29;14.85;;;3.22;;
52786;SDS011;38661;53.152;5.846;2022-08-01T05:11:56;21.83;;;3.90;;
52786;SDS011;38661;53.152;5.846;2022-08-01T05:14:24;15.90;;;4.78;;
52786;SDS011;38661;53.152;5.846;2022-08-01T05:16:50;12.85;;;3.78;;
52786;SDS011;38661;53.152;5.846;2022-08-01T05:19:17;15.85;;;3.95;;
52786;SDS011;38661;53.152;5.846;2022-08-01T05:21:42;17.20;;;3.75;;
52786;SDS011;38661;53.152;5.846;2022-08-01T05:24:08;14.55;;;3.80;;
52786;SDS011;38661;53.152;5.846;2022-08-01T05:26:34;15.25;;;3.53;;
52786;SDS011;38661;53.152;5.846;2022-08-01T05:29:00;16.25;;;4.28;;
52786;SDS011;38661;53.152;5.846;2022-08-01T05:31:25;17.90;;;4.35;;
52786;SDS011;38661;53.152;5.846;2022-08-01T05:33:51;16.55;;;5.18;;
52786;SDS011;38661;53.152;5.846;2022-08-01T05:36:17;14.38;;;4.35;;
52786;SDS011;38661;53.152;5.846;2022-08-01T05:38:42;11.18;;;3.97;;
52786;SDS011;38661;53.152;5.846;2022-08-01T05:41:08;12.80;;;4.35;;
52786;SDS011;38661;53.152;5.846;2022-08-01T05:43:35;13.90;;;3.92;;
52786;SDS011;38661;53.152;5.846;2022-08-01T05:46:01;16.48;;;4.47;;
52786;SDS011;38661;53.152;5.846;2022-08-01T05:48:27;21.05;;;3.78;;
52786;SDS011;38661;53.152;5.846;2022-08-01T05:50:53;16.33;;;4.47;;
52786;SDS011;38661;53.152;5.846;2022-08-01T05:53:19;13.23;;;4.07;;
52786;SDS011;38661;53.152;5.846;2022-08-01T05:55:45;17.60;;;4.30;;
52786;SDS011;38661;53.152;5.846;2022-08-01T05:58:11;17.20;;;3.92;;
52786;SDS011;38661;53.152;5.846;2022-08-01T06:00:36;8.85;;;3.17;;
52786;SDS011;38661;53.152;5.846;2022-08-01T06:03:02;12.23;;;3.13;;
52786;SDS011;38661;53.152;5.846;2022-08-01T06:05:28;11.68;;;4.00;;
52786;SDS011;38661;53.152;5.846;2022-08-01T06:07:53;20.13;;;3.70;;
52786;SDS011;38661;53.152;5.846;2022-08-01T06:10:19;9.88;;;3.10;;
52786;SDS011;38661;53.152;5.846;2022-08-01T06:12:45;16.60;;;3.55;;
52786;SDS011;38661;53.152;5.846;2022-08-01T06:15:10;14.77;;;3.83;;
52786;SDS011;38661;53.152;5.846;2022-08-01T06:17:36;16.38;;;3.53;;
52786;SDS011;38661;53.152;5.846;2022-08-01T06:20:02;12.85;;;3.75;;
52786;SDS011;38661;53.152;5.846;2022-08-01T06:22:29;14.27;;;3.80;;
52786;SDS011;38661;53.152;5.846;2022-08-01T06:24:54;12.82;;;3.53;;
52786;SDS011;38661;53.152;5.846;2022-08-01T06:27:20;12.75;;;3.22;;
52786;SDS011;38661;53.152;5.846;2022-08-01T06:29:46;12.02;;;3.17;;
52786;SDS011;38661;53.152;5.846;2022-08-01T06:32:12;14.25;;;3.20;;
52786;SDS011;38661;53.152;5.846;2022-08-01T06:34:38;9.88;;;2.90;;
52786;SDS011;38661;53.152;5.846;2022-08-01T06:37:03;12.32;;;3.00;;
52786;SDS011;38661;53.152;5.846;2022-08-01T06:39:29;15.60;;;3.38;;
52786;SDS011;38661;53.152;5.846;2022-08-01T06:41:55;11.85;;;3.00;;
52786;SDS011;38661;53.152;5.846;2022-08-01T06:44:20;11.80;;;2.95;;
52786;SDS011;38661;53.152;5.846;2022-08-01T06:46:46;11.57;;;2.60;;
52786;SDS011;38661;53.152;5.846;2022-08-01T06:49:11;15.38;;;3.00;;
52786;SDS011;38661;53.152;5.846;2022-08-01T06:51:37;13.15;;;3.35;;
52786;SDS011;38661;53.152;5.846;2022-08-01T06:54:03;12.55;;;3.40;;
52786;SDS011;38661;53.152;5.846;2022-08-01T06:56:28;10.80;;;2.47;;
52786;SDS011;38661;53.152;5.846;2022-08-01T06:58:54;8.25;;;2.47;;
52786;SDS011;38661;53.152;5.846;2022-08-01T07:01:26;10.35;;;2.83;;
52786;SDS011;38661;53.152;5.846;2022-08-01T07:03:53;12.63;;;3.03;;
52786;SDS011;38661;53.152;5.846;2022-08-01T07:06:18;8.10;;;2.85;;
52786;SDS011;38661;53.152;5.846;2022-08-01T07:08:44;11.25;;;3.47;;
52786;SDS011;38661;53.152;5.846;2022-08-01T07:11:10;12.35;;;2.58;;
52786;SDS011;38661;53.152;5.846;2022-08-01T07:13:35;10.15;;;3.10;;
52786;SDS011;38661;53.152;5.846;2022-08-01T07:16:01;10.98;;;2.75;;
52786;SDS011;38661;53.152;5.846;2022-08-01T07:18:27;9.35;;;2.25;;
52786;SDS011;38661;53.152;5.846;2022-08-01T07:20:52;10.20;;;2.65;;
52786;SDS011;38661;53.152;5.846;2022-08-01T07:23:18;10.68;;;3.10;;
52786;SDS011;38661;53.152;5.846;2022-08-01T07:25:44;8.18;;;2.45;;
52786;SDS011;38661;53.152;5.846;2022-08-01T07:28:09;9.10;;;2.22;;
52786;SDS011;38661;53.152;5.846;2022-08-01T07:30:35;12.98;;;2.70;;
52786;SDS011;38661;53.152;5.846;2022-08-01T07:33:01;11.30;;;2.45;;
52786;SDS011;38661;53.152;5.846;2022-08-01T07:35:27;8.82;;;2.15;;
52786;SDS011;38661;53.152;5.846;2022-08-01T07:37:53;11.93;;;2.60;;
52786;SDS011;38661;53.152;5.846;2022-08-01T07:40:19;6.72;;;2.60;;
52786;SDS011;38661;53.152;5.846;2022-08-01T07:42:45;12.32;;;2.67;;
52786;SDS011;38661;53.152;5.846;2022-08-01T07:45:12;12.02;;;2.55;;
52786;SDS011;38661;53.152;5.846;2022-08-01T07:47:38;7.82;;;2.63;;
52786;SDS011;38661;53.152;5.846;2022-08-01T07:50:04;10.23;;;2.75;;
52786;SDS011;38661;53.152;5.846;2022-08-01T07:52:31;11.15;;;2.40;;
52786;SDS011;38661;53.152;5.846;2022-08-01T07:54:57;7.75;;;2.03;;
52786;SDS011;38661;53.152;5.846;2022-08-01T07:57:23;8.23;;;2.97;;
52786;SDS011;38661;53.152;5.846;2022-08-01T07:59:50;7.45;;;1.98;;
52786;SDS011;38661;53.152;5.846;2022-08-01T08:02:16;10.23;;;3.38;;
52786;SDS011;38661;53.152;5.846;2022-08-01T08:04:42;7.68;;;2.10;;
52786;SDS011;38661;53.152;5.846;2022-08-01T08:07:08;8.60;;;2.08;;
52786;SDS011;38661;53.152;5.846;2022-08-01T08:09:34;8.15;;;2.47;;
52786;SDS011;38661;53.152;5.846;2022-08-01T08:12:00;9.13;;;2.13;;
52786;SDS011;38661;53.152;5.846;2022-08-01T08:14:25;6.05;;;2.10;;
52786;SDS011;38661;53.152;5.846;2022-08-01T08:16:51;6.25;;;2.15;;
52786;SDS011;38661;53.152;5.846;2022-08-01T08:19:17;6.20;;;1.95;;
52786;SDS011;38661;53.152;5.846;2022-08-01T08:21:43;9.77;;;2.30;;
52786;SDS011;38661;53.152;5.846;2022-08-01T08:24:09;9.63;;;2.00;;
52786;SDS011;38661;53.152;5.846;2022-08-01T08:26:44;6.65;;;2.05;;
52786;SDS011;38661;53.152;5.846;2022-08-01T08:29:10;7.72;;;2.17;;
52786;SDS011;38661;53.152;5.846;2022-08-01T08:31:36;10.18;;;2.75;;
52786;SDS011;38661;53.152;5.846;2022-08-01T08:34:02;14.35;;;2.75;;
52786;SDS011;38661;53.152;5.846;2022-08-01T08:36:28;8.15;;;2.75;;
52786;SDS011;38661;53.152;5.846;2022-08-01T08:38:53;9.35;;;2.47;;
52786;SDS011;38661;53.152;5.846;2022-08-01T08:41:19;10.52;;;2.47;;
52786;SDS011;38661;53.152;5.846;2022-08-01T08:43:47;6.25;;;1.95;;
52786;SDS011;38661;53.152;5.846;2022-08-01T08:46:13;11.32;;;2.90;;
52786;SDS011;38661;53.152;5.846;2022-08-01T08:48:39;9.80;;;2.22;;
52786;SDS011;38661;53.152;5.846;2022-08-01T08:51:06;6.82;;;2.58;;
52786;SDS011;38661;53.152;5.846;2022-08-01T08:53:33;11.77;;;2.42;;
52786;SDS011;38661;53.152;5.846;2022-08-01T08:56:00;5.95;;;2.15;;
52786;SDS011;38661;53.152;5.846;2022-08-01T08:58:27;7.03;;;1.70;;
52786;SDS011;38661;53.152;5.846;2022-08-01T09:00:53;6.63;;;1.90;;
52786;SDS011;38661;53.152;5.846;2022-08-01T09:03:20;4.65;;;1.88;;
52786;SDS011;38661;53.152;5.846;2022-08-01T09:05:45;5.90;;;1.40;;
52786;SDS011;38661;53.152;5.846;2022-08-01T09:08:11;5.93;;;1.80;;
52786;SDS011;38661;53.152;5.846;2022-08-01T09:10:37;6.78;;;2.75;;
52786;SDS011;38661;53.152;5.846;2022-08-01T09:15:51;8.23;;;1.73;;
52786;SDS011;38661;53.152;5.846;2022-08-01T09:23:41;9.50;;;1.90;;
52786;SDS011;38661;53.152;5.846;2022-08-01T09:26:09;6.15;;;1.58;;
52786;SDS011;38661;53.152;5.846;2022-08-01T09:28:36;6.93;;;1.58;;
52786;SDS011;38661;53.152;5.846;2022-08-01T09:31:05;8.38;;;2.22;;
52786;SDS011;38661;53.152;5.846;2022-08-01T09:36:23;8.88;;;1.85;;
52786;SDS011;38661;53.152;5.846;2022-08-01T09:38:50;6.63;;;1.75;;
52786;SDS011;38661;53.152;5.846;2022-08-01T09:41:17;10.20;;;1.88;;
52786;SDS011;38661;53.152;5.846;2022-08-01T09:43:55;6.32;;;2.15;;
52786;SDS011;38661;53.152;5.846;2022-08-01T09:46:21;8.80;;;1.50;;
52786;SDS011;38661;53.152;5.846;2022-08-01T09:49:02;4.78;;;1.45;;
52786;SDS011;38661;53.152;5.846;2022-08-01T09:51:33;5.45;;;1.85;;
52786;SDS011;38661;53.152;5.846;2022-08-01T09:54:01;5.35;;;1.42;;
52786;SDS011;38661;53.152;5.846;2022-08-01T09:56:38;6.95;;;1.98;;
52786;SDS011;38661;53.152;5.846;2022-08-01T09:59:08;6.40;;;2.22;;
52786;SDS011;38661;53.152;5.846;2022-08-01T10:01:49;10.00;;;2.28;;
52786;SDS011;38661;53.152;5.846;2022-08-01T10:04:16;6.07;;;1.58;;
52786;SDS011;38661;53.152;5.846;2022-08-01T10:06:44;8.57;;;1.60;;
52786;SDS011;38661;53.152;5.846;2022-08-01T10:09:14;4.32;;;1.45;;
52786;SDS011;38661;53.152;5.846;2022-08-01T10:11:48;8.15;;;1.67;;
52786;SDS011;38661;53.152;5.846;2022-08-01T10:14:14;5.55;;;1.40;;
52786;SDS011;38661;53.152;5.846;2022-08-01T10:16:41;7.20;;;1.88;;
52786;SDS011;38661;53.152;5.846;2022-08-01T10:19:08;7.97;;;1.80;;
52786;SDS011;38661;53.152;5.846;2022-08-01T10:21:33;6.88;;;1.58;;
52786;SDS011;38661;53.152;5.846;2022-08-01T10:24:02;5.82;;;1.42;;
52786;SDS011;38661;53.152;5.846;2022-08-01T10:26:29;4.65;;;1.63;;
52786;SDS011;38661;53.152;5.846;2022-08-01T10:28:58;6.70;;;1.60;;
52786;SDS011;38661;53.152;5.846;2022-08-01T10:31:24;7.68;;;1.63;;
52786;SDS011;38661;53.152;5.846;2022-08-01T10:33:50;7.05;;;1.70;;
52786;SDS011;38661;53.152;5.846;2022-08-01T10:36:17;6.65;;;1.40;;
52786;SDS011;38661;53.152;5.846;2022-08-01T10:38:45;8.25;;;1.20;;
52786;SDS011;38661;53.152;5.846;2022-08-01T10:41:12;7.63;;;1.98;;
52786;SDS011;38661;53.152;5.846;2022-08-01T10:43:40;5.55;;;1.35;;
52786;SDS011;38661;53.152;5.846;2022-08-01T10:46:06;7.40;;;1.40;;
52786;SDS011;38661;53.152;5.846;2022-08-01T10:48:41;6.93;;;1.73;;
52786;SDS011;38661;53.152;5.846;2022-08-01T10:51:12;5.00;;;1.50;;
52786;SDS011;38661;53.152;5.846;2022-08-01T10:53:45;10.82;;;2.10;;
52786;SDS011;38661;53.152;5.846;2022-08-01T10:56:18;6.20;;;1.70;;
52786;SDS011;38661;53.152;5.846;2022-08-01T10:58:46;6.30;;;1.40;;
52786;SDS011;38661;53.152;5.846;2022-08-01T11:03:38;6.53;;;1.55;;
52786;SDS011;38661;53.152;5.846;2022-08-01T11:06:04;6.22;;;1.33;;
52786;SDS011;38661;53.152;5.846;2022-08-01T11:08:30;7.82;;;1.73;;
52786;SDS011;38661;53.152;5.846;2022-08-01T11:11:00;5.13;;;1.38;;
52786;SDS011;38661;53.152;5.846;2022-08-01T11:16:27;7.10;;;1.30;;
52786;SDS011;38661;53.152;5.846;2022-08-01T11:18:54;4.32;;;1.20;;
52786;SDS011;38661;53.152;5.846;2022-08-01T11:21:19;7.25;;;1.63;;
52786;SDS011;38661;53.152;5.846;2022-08-01T11:23:49;4.43;;;1.42;;
52786;SDS011;38661;53.152;5.846;2022-08-01T11:26:19;6.70;;;1.42;;
52786;SDS011;38661;53.152;5.846;2022-08-01T11:28:48;6.32;;;1.67;;
52786;SDS011;38661;53.152;5.846;2022-08-01T11:31:41;4.07;;;1.42;;
52786;SDS011;38661;53.152;5.846;2022-08-01T11:34:07;6.93;;;1.50;;
52786;SDS011;38661;53.152;5.846;2022-08-01T11:36:32;6.05;;;1.70;;
52786;SDS011;38661;53.152;5.846;2022-08-01T11:41:31;8.35;;;1.42;;
52786;SDS011;38661;53.152;5.846;2022-08-01T11:52:14;7.05;;;1.95;;
52786;SDS011;38661;53.152;5.846;2022-08-01T11:54:55;6.80;;;1.70;;
52786;SDS011;38661;53.152;5.846;2022-08-01T11:57:28;4.90;;;1.67;;
52786;SDS011;38661;53.152;5.846;2022-08-01T11:59:56;6.25;;;1.77;;
52786;SDS011;38661;53.152;5.846;2022-08-01T12:02:24;5.47;;;1.50;;
52786;SDS011;38661;53.152;5.846;2022-08-01T12:07:20;5.18;;;1.83;;
52786;SDS011;38661;53.152;5.846;2022-08-01T12:09:47;4.10;;;1.48;;
52786;SDS011;38661;53.152;5.846;2022-08-01T12:12:21;6.18;;;1.60;;
52786;SDS011;38661;53.152;5.846;2022-08-01T12:14:52;6.63;;;1.40;;
52786;SDS011;38661;53.152;5.846;2022-08-01T12:17:28;8.73;;;2.15;;
52786;SDS011;38661;53.152;5.846;2022-08-01T12:19:54;6.28;;;1.90;;
52786;SDS011;38661;53.152;5.846;2022-08-01T12:22:21;4.90;;;1.20;;
52786;SDS011;38661;53.152;5.846;2022-08-01T12:24:49;3.63;;;1.17;;
52786;SDS011;38661;53.152;5.846;2022-08-01T12:27:36;6.05;;;1.33;;
52786;SDS011;38661;53.152;5.846;2022-08-01T12:30:01;6.13;;;1.73;;
52786;SDS011;38661;53.152;5.846;2022-08-01T12:32:33;2.60;;;1.20;;
52786;SDS011;38661;53.152;5.846;2022-08-01T12:35:08;8.10;;;1.58;;
52786;SDS011;38661;53.152;5.846;2022-08-01T12:37:36;4.85;;;1.30;;
52786;SDS011;38661;53.152;5.846;2022-08-01T12:40:25;4.35;;;1.25;;
52786;SDS011;38661;53.152;5.846;2022-08-01T12:42:50;4.65;;;1.20;;
52786;SDS011;38661;53.152;5.846;2022-08-01T12:45:18;7.35;;;1.88;;
52786;SDS011;38661;53.152;5.846;2022-08-01T12:48:01;6.63;;;1.45;;
52786;SDS011;38661;53.152;5.846;2022-08-01T12:50:36;4.95;;;1.55;;
52786;SDS011;38661;53.152;5.846;2022-08-01T12:53:07;4.07;;;1.48;;
52786;SDS011;38661;53.152;5.846;2022-08-01T12:55:43;3.83;;;1.20;;
52786;SDS011;38661;53.152;5.846;2022-08-01T12:58:18;7.95;;;2.13;;
52786;SDS011;38661;53.152;5.846;2022-08-01T13:00:45;4.38;;;1.17;;
52786;SDS011;38661;53.152;5.846;2022-08-01T13:03:14;5.07;;;1.50;;
52786;SDS011;38661;53.152;5.846;2022-08-01T13:05:51;4.93;;;1.15;;
52786;SDS011;38661;53.152;5.846;2022-08-01T13:08:22;3.85;;;1.40;;
52786;SDS011;38661;53.152;5.846;2022-08-01T13:10:50;4.95;;;1.40;;
52786;SDS011;38661;53.152;5.846;2022-08-01T13:13:24;3.78;;;1.33;;
52786;SDS011;38661;53.152;5.846;2022-08-01T13:16:05;5.90;;;1.42;;
52786;SDS011;38661;53.152;5.846;2022-08-01T13:18:32;4.28;;;1.30;;
52786;SDS011;38661;53.152;5.846;2022-08-01T13:21:09;6.38;;;1.45;;
52786;SDS011;38661;53.152;5.846;2022-08-01T13:24:02;5.10;;;1.30;;
52786;SDS011;38661;53.152;5.846;2022-08-01T13:26:38;3.53;;;1.25;;
52786;SDS011;38661;53.152;5.846;2022-08-01T13:29:13;6.65;;;1.63;;
52786;SDS011;38661;53.152;5.846;2022-08-01T13:31:40;4.75;;;1.23;;
52786;SDS011;38661;53.152;5.846;2022-08-01T13:34:06;3.92;;;1.10;;
52786;SDS011;38661;53.152;5.846;2022-08-01T13:36:32;4.75;;;1.13;;
52786;SDS011;38661;53.152;5.846;2022-08-01T13:38:59;5.85;;;1.55;;
52786;SDS011;38661;53.152;5.846;2022-08-01T13:41:44;3.50;;;1.40;;
52786;SDS011;38661;53.152;5.846;2022-08-01T13:44:11;6.22;;;1.60;;
52786;SDS011;38661;53.152;5.846;2022-08-01T13:46:37;3.58;;;1.30;;
52786;SDS011;38661;53.152;5.846;2022-08-01T13:49:04;3.63;;;1.23;;
52786;SDS011;38661;53.152;5.846;2022-08-01T13:51:31;5.60;;;1.38;;
52786;SDS011;38661;53.152;5.846;2022-08-01T13:53:57;4.50;;;1.20;;
52786;SDS011;38661;53.152;5.846;2022-08-01T13:56:23;5.32;;;1.45;;
52786;SDS011;38661;53.152;5.846;2022-08-01T13:58:49;7.30;;;1.35;;
52786;SDS011;38661;53.152;5.846;2022-08-01T14:01:15;3.80;;;1.13;;
52786;SDS011;38661;53.152;5.846;2022-08-01T14:03:41;9.57;;;1.65;;
52786;SDS011;38661;53.152;5.846;2022-08-01T14:06:08;7.40;;;1.65;;
52786;SDS011;38661;53.152;5.846;2022-08-01T14:08:34;5.97;;;1.52;;
52786;SDS011;38661;53.152;5.846;2022-08-01T14:10:59;6.63;;;1.92;;
52786;SDS011;38661;53.152;5.846;2022-08-01T14:13:25;4.40;;;1.40;;
52786;SDS011;38661;53.152;5.846;2022-08-01T14:15:51;5.65;;;1.40;;
52786;SDS011;38661;53.152;5.846;2022-08-01T14:18:17;7.85;;;1.73;;
52786;SDS011;38661;53.152;5.846;2022-08-01T14:20:43;6.55;;;2.20;;
52786;SDS011;38661;53.152;5.846;2022-08-01T14:23:09;7.05;;;1.35;;
52786;SDS011;38661;53.152;5.846;2022-08-01T14:25:36;7.03;;;1.52;;
52786;SDS011;38661;53.152;5.846;2022-08-01T14:28:02;5.35;;;1.45;;
52786;SDS011;38661;53.152;5.846;2022-08-01T14:30:28;5.63;;;1.30;;
52786;SDS011;38661;53.152;5.846;2022-08-01T14:32:54;3.70;;;1.35;;
52786;SDS011;38661;53.152;5.846;2022-08-01T14:35:20;5.22;;;1.40;;
52786;SDS011;38661;53.152;5.846;2022-08-01T14:37:46;6.15;;;1.70;;
52786;SDS011;38661;53.152;5.846;2022-08-01T14:40:12;3.90;;;1.10;;
52786;SDS011;38661;53.152;5.846;2022-08-01T14:42:38;6.00;;;1.27;;
52786;SDS011;38661;53.152;5.846;2022-08-01T14:45:04;5.00;;;1.45;;
52786;SDS011;38661;53.152;5.846;2022-08-01T14:47:34;4.03;;;1.95;;
52786;SDS011;38661;53.152;5.846;2022-08-01T14:50:01;2.17;;;1.05;;
52786;SDS011;38661;53.152;5.846;2022-08-01T14:52:29;4.18;;;1.20;;
52786;SDS011;38661;53.152;5.846;2022-08-01T14:54:55;7.35;;;1.60;;
52786;SDS011;38661;53.152;5.846;2022-08-01T14:57:20;4.88;;;1.77;;
52786;SDS011;38661;53.152;5.846;2022-08-01T14:59:46;4.65;;;1.45;;
52786;SDS011;38661;53.152;5.846;2022-08-01T15:02:12;4.80;;;1.50;;
52786;SDS011;38661;53.152;5.846;2022-08-01T15:04:41;3.15;;;1.10;;
52786;SDS011;38661;53.152;5.846;2022-08-01T15:07:11;4.05;;;1.30;;
52786;SDS011;38661;53.152;5.846;2022-08-01T15:09:37;3.92;;;1.33;;
52786;SDS011;38661;53.152;5.846;2022-08-01T15:12:02;5.75;;;1.45;;
52786;SDS011;38661;53.152;5.846;2022-08-01T15:14:28;6.13;;;1.77;;
52786;SDS011;38661;53.152;5.846;2022-08-01T15:19:38;4.53;;;1.30;;
52786;SDS011;38661;53.152;5.846;2022-08-01T15:22:04;5.20;;;1.63;;
52786;SDS011;38661;53.152;5.846;2022-08-01T15:24:30;5.35;;;1.73;;
52786;SDS011;38661;53.152;5.846;2022-08-01T15:26:56;3.95;;;1.35;;
52786;SDS011;38661;53.152;5.846;2022-08-01T15:29:21;10.65;;;2.03;;